AE0SS-11>APRS,qAR,K0YG-7:$GPRMC,132349,A,4028.3640,N,10457.6958,W,2.067,0.3,160405,10.5,E*52 AE0SS-11>APRS,qAR,K0YG-7:$GPGGA,132426,4028.3833,N,10457.6846,W,1,07,0.99,1992.9,M,-21.0,M,,*7D AE0SS-11>APRS,qAR,K0YG-7:$GPRMC,132449,A,4028.4001,N,10457.6657,W,4.390,44.0,160405,10.5,E*6F AE0SS-11>APRS,qAR,K0YG-7:$GPGGA,132526,4028.3776,N,10457.6466,W,1,06,0.99,2234.0,M,-21.0,M,,*70 AE0SS-11>APRS,qAR,K0YG-7:$GPGGA,132556,4028.3260,N,10457.6636,W,1,07,0.99,2351.2,M,-21.0,M,,*73 AE0SS-11>APRS,qAR,K0YG-7:$GPRMC,132549,A,4028.3379,N,10457.6594,W,7.066,198.3,160405,10.5,E*53 AE0SS-11>APRS,qAR,K0YG-7:$GPGGA,132626,4028.2969,N,10457.7194,W,1,07,1.00,2474.3,M,-21.0,M,,*7A AE0SS-11>APRS,qAR,K0YG-7:$GPGGA,132656,4028.2663,N,10457.7580,W,1,06,1.00,2599.8,M,-21.0,M,,*71 AE0SS-11>APRS,qAR,K0YG-7:$GPRMC,132649,A,4028.2713,N,10457.7533,W,4.376,200.5,160405,10.5,E*50 AE0SS-11>APRS,qAR,K0YG-7:$GPGGA,132726,4028.2657,N,10457.7740,W,1,07,1.00,2728.2,M,-21.0,M,,*7D AE0SS-11>APRS,qAR,K0YG-7:$GPRMC,132749,A,4028.2575,N,10457.7701,W,2.698,83.0,160405,10.5,E*6F AE0SS-11>APRS,qAR,K0YG-7:$GPGGA,132756,4028.2597,N,10457.7638,W,1,07,1.00,2859.1,M,-21.0,M,,*71 AE0SS-11>APRS,qAR,K0YG-7:$GPGGA,132826,4028.2791,N,10457.7455,W,1,07,1.00,2995.7,M,-21.0,M,,*73 AE0SS-11>APRS,qAR,K0YG-7:$GPRMC,132849,A,4028.3102,N,10457.7567,W,5.471,11.1,160405,10.5,E*6F AE0SS-11>APRS,qAR,K0YG-7:$GPGGA,132856,4028.3246,N,10457.7584,W,1,08,1.00,3139.0,M,-21.0,M,,*70 AE0SS-11>APRS,qAR,K0YG-7:$GPGGA,132926,4028.4133,N,10457.7643,W,1,07,1.00,3278.7,M,-21.0,M,,*76 AE0SS-11>APRS,qAR,K0YG-7:$GPRMC,132949,A,4028.4843,N,10457.7415,W,11.199,12.3,160405,10.5,E*56 AE0SS-11>APRS,qAR,K0YG-7:$GPGGA,132956,4028.5046,N,10457.7348,W,1,07,1.00,3425.3,M,-21.0,M,,*77 AE0SS-11>APRS,qAR,K0YG-7:$GPGGA,133026,4028.5916,N,10457.6806,W,1,07,1.00,3569.1,M,-21.0,M,,*7F AE0SS-11>APRS,qAR,K0YG-7:$GPRMC,133049,A,4028.6561,N,10457.6365,W,12.319,27.3,160405,10.5,E*5F AE0SS-11>APRS,qAR,K0YG-7:$GPGGA,133056,4028.6741,N,10457.6249,W,1,06,1.00,3723.9,M,-21.0,M,,*73 AE0SS-11>APRS,qAR,K0YG-7:$GPGGA,133126,4028.7443,N,10457.5590,W,1,06,1.10,3871.5,M,-21.0,M,,*70 AE0SS-11>APRS,qAR,K0YG-7:$GPRMC,133149,A,4028.7961,N,10457.4975,W,12.316,50.2,160405,10.5,E*54 AE0SS-11>APRS,qAR,K0YG-7:$GPGGA,133156,4028.8121,N,10457.4783,W,1,06,1.10,4021.1,M,-21.0,M,,*76 AE0SS-11>APRS,qAR,K0YG-7:$GPGGA,133226,4028.8525,N,10457.3585,W,1,06,1.10,4176.3,M,-21.0,M,,*70 AE0SS-11>APRS,qAR,K0YG-7:$GPRMC,133249,A,4028.8777,N,10457.2402,W,14.265,72.7,160405,10.5,E*5C AE0SS-11>APRS,qAR,K0YG-7:$GPGGA,133256,4028.8837,N,10457.2045,W,1,07,1.11,4337.0,M,-21.0,M,,*75 AE0SS-11>APRS,qAR,K0YG-7:$GPGGA,133326,4028.8957,N,10457.0378,W,1,06,1.11,4496.5,M,-21.0,M,,*73 AE0SS-11>APRS,qAR,K0YG-7:$GPRMC,133349,A,4028.9030,N,10456.8806,W,18.135,88.6,160405,10.5,E*55 AE0SS-11>APRS,qAR,K0YG-7:$GPGGA,133356,4028.9027,N,10456.8341,W,1,06,1.11,4654.4,M,-21.0,M,,*75 AE0SS-11>APRS,qAR,K0YG-7:$GPGGA,133426,4028.9095,N,10456.6047,W,1,06,1.11,4817.0,M,-21.0,M,,*7A AE0SS-11>APRS,qAR,K0YG-7:$GPRMC,133449,A,4028.9300,N,10456.4220,W,20.370,83.9,160405,10.5,E*5C AE0SS-11>APRS,qAR,K0YG-7:$GPGGA,133456,4028.9337,N,10456.3698,W,1,05,1.11,4981.8,M,-21.0,M,,*72 AE0SS-11>APRS,qAR,K0YG-7:$GPGGA,133526,4028.9513,N,10456.1599,W,1,06,1.12,5146.9,M,-21.0,M,,*77 AE0SS-11>APRS,qAR,K0YG-7:$GPRMC,133549,A,4028.9641,N,10455.9948,W,21.753,83.3,160405,10.5,E*58 AE0SS-11>APRS,qAR,K0YG-7:$GPGGA,133556,4028.9697,N,10455.9416,W,1,07,1.12,5313.1,M,-21.0,M,,*79 AE0SS-11>APRS,qAR,K0YG-7:$GPGGA,133626,4028.9835,N,10455.7215,W,1,05,1.12,5483.3,M,-21.0,M,,*7E AE0SS-11>APRS,qAR,K0YG-7:$GPRMC,133649,A,4028.9732,N,10455.5536,W,18.881,98.4,160405,10.5,E*50 AE0SS-11>APRS,qAR,K0YG-7:$GPGGA,133656,4028.9660,N,10455.5034,W,1,04,1.12,5658.3,M,-21.0,M,,*71 AE0SS-11>APRS,qAR,K0YG-7:$GPGGA,133726,4028.9331,N,10455.2665,W,1,06,1.12,5826.3,M,-21.0,M,,*76 AE0SS-11>APRS,qAR,K0YG-7:$GPRMC,133749,A,4028.9196,N,10455.0699,W,25.298,94.4,160405,10.5,E*5A AE0SS-11>APRS,qAR,K0YG-7:$GPGGA,133756,4028.9182,N,10455.0036,W,1,06,1.13,5990.9,M,-21.0,M,,*7E AE0SS-11>APRS,qAo,K0AEM-1:$GPGGA,133826,4028.9231,N,10454.7130,W,1,05,1.13,6156.7,M,-21.0,M,,*70 AE0SS-11>APRS,qAo,K0AEM-1:$GPRMC,133849,A,4028.9348,N,10454.4926,W,27.098,79.5,160405,10.5,E*58 AE0SS-11>APRS,qAR,K0YG-7:$GPGGA,133856,4028.9456,N,10454.4287,W,1,06,1.13,6320.4,M,-21.0,M,,*7F AE0SS-11>APRS,qAR,K0YG-7:$GPGGA,133926,4028.9927,N,10454.1727,W,1,05,1.13,6488.6,M,-21.0,M,,*7C AE0SS-11>APRS,qAR,K0YG-7:$GPRMC,133949,A,4029.0226,N,10453.9801,W,22.464,77.7,160405,10.5,E*58 AE0SS-11>APRS,qAR,K0YG-7:$GPGGA,133956,4029.0282,N,10453.9228,W,1,05,1.13,6657.6,M,-21.0,M,,*72 AE0SS-11>APRS,qAR,K0YG-7:$GPGGA,134026,4029.0440,N,10453.6599,W,1,05,1.14,6832.5,M,-21.0,M,,*78 AE0SS-11>APRS,qAR,K0YG-7:$GPRMC,134049,A,4029.0642,N,10453.4571,W,24.410,85.5,160405,10.5,E*5D AE0SS-11>APRS,qAo,K0AEM-1:$GPGGA,134056,4029.0698,N,10453.3933,W,1,05,1.58,7007.1,M,-21.0,M,,*72 AE0SS-11>APRS,qAR,K0YG-7:$GPGGA,134126,4029.1124,N,10453.1309,W,1,06,1.58,7192.9,M,-21.0,M,,*72 AE0SS-11>APRS,qAo,K0AEM-1:$GPRMC,134149,A,4029.1320,N,10452.9426,W,23.264,82.9,160405,10.4,E*5B AE0SS-11>APRS,qAR,K0YG-7:$GPGGA,134156,4029.1422,N,10452.8856,W,1,06,1.58,7375.7,M,-21.0,M,,*7A AE0SS-11>APRS,qAo,K0AEM-1:$GPGGA,134226,4029.1764,N,10452.6474,W,1,04,1.58,7557.7,M,-21.0,M,,*79 AE0SS-11>APRS,qAR,K0YG-7:$GPRMC,134249,A,4029.1947,N,10452.4584,W,22.903,80.5,160405,10.4,E*52 AE0SS-11>APRS,qAo,K0AEM-1:$GPGGA,134256,4029.1972,N,10452.4005,W,1,06,1.58,7739.1,M,-21.0,M,,*79 AE0SS-11>APRS,qAo,K0AEM-1:$GPGGA,134326,4029.2099,N,10452.1314,W,1,04,1.58,7920.4,M,-21.0,M,,*77 AE0SS-11>APRS,qAR,K0YG-7:$GPRMC,134349,A,4029.2254,N,10451.9148,W,24.873,88.6,160405,10.4,E*58 AE0SS-11>APRS,qAR,K0YG-7:$GPGGA,134356,4029.2250,N,10451.8491,W,1,06,1.58,8094.5,M,-21.0,M,,*7D AE0SS-11>APRS,qAo,K0AEM-1:$GPGGA,134426,4029.2414,N,10451.5639,W,1,06,1.58,8271.1,M,-21.2,M,,*79 AE0SS-11>APRS,qAR,K0YG-7:$GPRMC,134449,A,4029.2564,N,10451.3587,W,27.828,86.9,160405,10.4,E*5A AE0SS-11>APRS,qAo,K0AEM-1:$GPGGA,134456,4029.2624,N,10451.2895,W,1,05,1.58,8456.6,M,-21.2,M,,*77 AE0SS-11>APRS,qAo,K0AEM-1:$GPGGA,134526,4029.2863,N,10451.0112,W,1,04,1.58,8634.8,M,-21.2,M,,*71 AE0SS-11>APRS,qAR,K0YG-7:$GPRMC,134549,A,4029.3097,N,10450.7939,W,28.026,76.0,160405,10.4,E*50 AE0SS-11>APRS,qAo,K0ANI-7:$GPGGA,134556,4029.3232,N,10450.7295,W,1,04,1.58,8814.5,M,-21.2,M,,*72 AE0SS-11>APRS,qAo,K0ANI-7:$GPGGA,134626,4029.3581,N,10450.4210,W,1,05,1.58,8989.4,M,-21.2,M,,*72 AE0SS-11>APRS,qAR,K0YG-7:$GPRMC,134649,A,4029.3768,N,10450.1783,W,28.171,84.0,160405,10.4,E*53 AE0SS-11>APRS,qAo,K0ANI-7:$GPGGA,134656,4029.3848,N,10450.1091,W,1,05,1.58,9171.3,M,-21.2,M,,*7A AE0SS-11>APRS,qAR,K0YG-7:$GPGGA,134726,4029.4051,N,10449.8020,W,1,05,1.58,9355.0,M,-21.2,M,,*77 AE0SS-11>APRS,qAR,K0YG-7:$GPRMC,134749,A,4029.4155,N,10449.5815,W,23.892,87.4,160405,10.4,E*59 AE0SS-11>APRS,qAo,K0AEM-1:$GPGGA,134756,4029.4157,N,10449.5198,W,1,05,1.58,9526.2,M,-21.2,M,,*78 AE0SS-11>APRS,qAo,K0ANI-7:$GPGGA,134826,4029.4349,N,10449.2387,W,1,03,1.58,9710.5,M,-21.2,M,,*70 AE0SS-11>APRS,qAo,K0ANI-7:$GPGGA,134856,4029.4285,N,10448.9851,W,1,04,1.58,9898.7,M,-21.2,M,,*76 AE0SS-11>APRS,qAo,K0ANI-7:$GPRMC,134849,A,4029.4361,N,10449.0426,W,21.861,101.5,160405,10.4,E*6A AE0SS-11>APRS,qAo,K0ANI-7:$GPGGA,134926,4029.4182,N,10448.7570,W,1,04,1.58,10082.8,M,-21.2,M,,*40 AE0SS-11>APRS,qAo,K0ANI-7:$GPRMC,134949,A,4029.4013,N,10448.5797,W,23.458,104.6,160405,10.4,E*62 AE0SS-11>APRS,qAR,K0YG-7:$GPGGA,134956,4029.3881,N,10448.5197,W,1,04,1.58,10266.2,M,-21.2,M,,*47 AE0SS-11>APRS,qAo,K0ANI-7:$GPGGA,135026,4029.3473,N,10448.2550,W,1,04,1.58,10454.7,M,-21.2,M,,*43 AE0SS-11>APRS,qAo,K0AEM-1:$GPRMC,135049,A,4029.3008,N,10448.0781,W,22.939,123.3,160405,10.4,E*6E AE0SS-11>APRS,qAR,K0YG-7:$GPGGA,135056,4029.2832,N,10448.0195,W,1,06,1.58,10643.2,M,-21.2,M,,*40 AE0SS-11>APRS,qAo,K0ANI-7:$GPGGA,135126,4029.2183,N,10447.7994,W,1,05,1.58,10832.2,M,-21.2,M,,*4F AE0SS-11>APRS,qAo,K0AEM-1:$GPRMC,135149,A,4029.1752,N,10447.6158,W,26.216,108.8,160405,10.4,E*6E AE0SS-11>APRS,qAR,K0YG-7:$GPGGA,135156,4029.1612,N,10447.5669,W,1,04,1.58,11027.0,M,-21.2,M,,*45 AE0SS-11>APRS,qAR,K0YG-7:$GPGGA,135226,4029.0938,N,10447.3343,W,1,04,1.59,11207.8,M,-21.2,M,,*45 AE0SS-11>APRS,qAo,K0ANI-7:$GPRMC,135249,A,4029.0530,N,10447.1465,W,23.636,93.8,160405,10.4,E*56 AE0SS-11>APRS,qAo,K0ANI-7:$GPGGA,135256,4029.0519,N,10447.0842,W,1,06,1.59,11410.1,M,-21.2,M,,*4F AE0SS-11>APRS,qAo,K0ANI-7:$GPGGA,135326,4029.0433,N,10446.8565,W,1,05,1.59,11605.2,M,-21.2,M,,*47 AE0SS-11>APRS,qAo,K0ANI-7:$GPRMC,135349,A,4029.0844,N,10446.6628,W,25.655,70.3,160405,10.3,E*56 AE0SS-11>APRS,qAo,K0ANI-7:$GPGGA,135356,4029.0985,N,10446.5917,W,1,05,1.59,11788.5,M,-21.2,M,,*47 AE0SS-11>APRS,qAR,K0YG-7:$GPGGA,135426,4029.1694,N,10446.2572,W,1,05,1.42,11971.9,M,-21.2,M,,*4F AE0SS-11>APRS,qAR,K0YG-7:$GPRMC,135449,A,4029.2364,N,10445.9815,W,33.073,83.3,160405,10.3,E*5F AE0SS-11>APRS,qAR,K0YG-7:$GPGGA,135456,4029.2432,N,10445.9083,W,1,04,1.41,12160.5,M,-21.2,M,,*43 AE0SS-11>APRS,qAo,K0AEM-1:$GPGGA,135526,4029.2262,N,10445.6148,W,1,05,1.41,12325.4,M,-21.3,M,,*4D AE0SS-11>APRS,qAR,K0YG-7:$GPGGA,135556,4029.2287,N,10445.3389,W,1,04,1.40,12493.0,M,-21.3,M,,*45 AE0SS-11>APRS,qAo,K0ANI-7:$GPRMC,135549,A,4029.2300,N,10445.4104,W,24.016,86.0,160405,10.3,E*5B AE0SS-11>APRS,qAo,K0AEM-1:$GPGGA,135626,4029.2377,N,10444.9531,W,1,05,1.40,12661.6,M,-21.3,M,,*49 AE0SS-11>APRS,qAo,K0AEM-1:$GPRMC,135649,A,4029.2058,N,10444.7596,W,20.549,95.4,160405,10.3,E*56 AE0SS-11>APRS,qAR,K0YG-7:$GPGGA,135656,4029.2022,N,10444.6968,W,1,05,1.39,12834.4,M,-21.3,M,,*40 AE0SS-11>APRS,qAR,K0YG-7:$GPGGA,135726,4029.1623,N,10444.4011,W,1,04,1.39,12934.4,M,-21.3,M,,*47 AE0SS-11>APRS,qAR,K0YG-7:$GPGGA,135756,4029.1147,N,10444.1125,W,1,06,1.38,13006.5,M,-21.3,M,,*4D AE0SS-11>APRS,qAo,K0ANI-7:$GPRMC,135749,A,4029.1280,N,10444.1828,W,26.955,101.7,160405,10.3,E*65 AE0SS-11>APRS,qAo,K0ANI-7:$GPGGA,135826,4029.1053,N,10443.8162,W,1,05,1.38,13088.8,M,-21.3,M,,*44 AE0SS-11>APRS,qAR,K0YG-7:$GPRMC,135849,A,4029.1081,N,10443.5667,W,31.957,91.1,160405,10.3,E*55 AE0SS-11>APRS,qAo,K0ANI-7:$GPGGA,135856,4029.1091,N,10443.4956,W,1,04,1.37,13173.1,M,-21.3,M,,*4C AE0SS-11>APRS,qAo,K0ANI-7:$GPGGA,135926,4029.0703,N,10443.1798,W,1,04,1.37,13260.9,M,-21.3,M,,*47 AE0SS-11>APRS,qAo,K0ANI-7:$GPRMC,135949,A,4029.0383,N,10442.9444,W,29.500,103.7,160405,10.3,E*61 AE0SS-11>APRS,qAR,K0YG-7:$GPGGA,135956,4029.0315,N,10442.8669,W,1,06,1.36,13348.9,M,-21.3,M,,*4C AE0SS-11>APRS,qAo,K0ANI-7:$GPGGA,140026,4029.0150,N,10442.5277,W,1,04,1.36,13450.3,M,-21.3,M,,*43 AE0SS-11>APRS,qAR,K0YG-7:$GPRMC,140049,A,4028.9857,N,10442.2837,W,33.369,100.6,160405,10.3,E*63 AE0SS-11>APRS,qAo,K0AEM-1:$GPGGA,140056,4028.9774,N,10442.1957,W,1,03,1.35,13538.8,M,-21.3,M,,*41 AE0SS-11>APRS,qAR,K0YG-7:$GPGGA,140126,4028.9223,N,10441.8165,W,1,04,1.34,13625.4,M,-21.3,M,,*46 AE0SS-11>APRS,qAo,K0ANI-7:$GPRMC,140149,A,4028.8869,N,10441.5639,W,28.682,102.4,160405,10.3,E*60 AE0SS-11>APRS,qAR,K0YG-7:$GPGGA,140156,4028.8720,N,10441.4928,W,1,05,1.34,13712.8,M,-21.3,M,,*43 AE0SS-11>APRS,qAR,K0YG-7:$GPGGA,140226,4028.8482,N,10441.2190,W,1,05,1.33,13822.7,M,-21.3,M,,*45 AE0SS-11>APRS,qAo,K0ANI-7:$GPRMC,140249,A,4028.8592,N,10441.0196,W,23.754,90.4,160405,10.3,E*56 AE0SS-11>APRS,qAo,K0ANI-7:$GPGGA,140256,4028.8524,N,10440.9579,W,1,04,1.33,13944.5,M,-21.3,M,,*44 AE0SS-11>APRS,qAo,K0ANI-7:$GPGGA,140326,4028.8416,N,10440.6859,W,1,04,1.33,14040.7,M,-21.3,M,,*4A AE0SS-11>APRS,qAR,K0YG-7:$GPRMC,140349,A,4028.8372,N,10440.4654,W,26.496,89.8,160405,10.3,E*5F AE0SS-11>APRS,qAo,K0ANI-7:$GPGGA,140356,4028.8315,N,10440.4003,W,1,05,1.32,14132.3,M,-21.3,M,,*4C AE0SS-11>APRS,qAo,K0ANI-7:$GPGGA,140426,4028.7904,N,10440.1065,W,1,03,1.32,14225.3,M,-21.3,M,,*4F AE0SS-11>APRS,qAo,K0AEM-1:$GPRMC,140449,A,4028.7591,N,10439.8880,W,25.083,100.4,160405,10.3,E*66 AE0SS-11>APRS,qAo,K0ANI-7:$GPGGA,140456,4028.7547,N,10439.8236,W,1,04,1.31,14320.8,M,-21.3,M,,*4B AE0SS-11>APRS,qAo,K0AEM-1:$GPGGA,140526,4028.7538,N,10439.5523,W,1,04,1.31,14419.7,M,-21.5,M,,*4F AE0SS-11>APRS,qAo,K0AEM-1:$GPRMC,140549,A,4028.7714,N,10439.3680,W,22.596,89.0,160405,10.3,E*5F AE0SS-11>APRS,qAo,K0ANI-7:$GPGGA,140556,4028.7757,N,10439.3060,W,1,04,1.30,14507.9,M,-21.5,M,,*46 AE0SS-11>APRS,qAo,K0AEM-1:$GPGGA,140626,4028.8145,N,10439.0572,W,1,05,1.30,14601.6,M,-21.5,M,,*46 AE0SS-11>APRS,qAR,K0YG-7:$GPRMC,140649,A,4028.8702,N,10438.8454,W,29.272,74.0,160405,10.3,E*51 AE0SS-11>APRS,qAo,K0ANI-7:$GPGGA,140656,4028.8889,N,10438.7876,W,1,03,1.29,14744.7,M,-21.5,M,,*48 AE0SS-11>APRS,qAR,K0YG-7:$GPGGA,140726,4028.9090,N,10438.5406,W,1,05,1.29,14858.5,M,-21.5,M,,*40 AE0SS-11>APRS,qAo,K0AEM-1:$GPRMC,140749,A,4028.9323,N,10438.3395,W,25.706,83.5,160405,10.3,E*50 AE0SS-11>APRS,qAR,K0YG-7:$GPGGA,140756,4028.9412,N,10438.2657,W,1,05,1.28,14950.9,M,-21.5,M,,*4C AE0SS-11>APRS,qAR,K0YG-7:$GPGGA,140826,4028.9573,N,10437.9698,W,1,03,0.91,15041.4,M,-21.5,M,,*45 AE0SS-11>APRS,qAo,K0AEM-1:$GPRMC,140849,A,4028.9642,N,10437.7506,W,24.351,88.0,160405,10.3,E*53 AE0SS-11>APRS,qAR,K0YG-7:$GPGGA,140856,4028.9703,N,10437.6851,W,1,03,0.91,15128.5,M,-21.5,M,,*4C AE0SS-11>APRS,qAo,K0ANI-7:$GPGGA,140926,4028.9797,N,10437.4329,W,1,05,0.91,15206.5,M,-21.5,M,,*48 AE0SS-11>APRS,qAo,K0ANI-7:$GPRMC,140949,A,4028.9724,N,10437.2353,W,24.483,88.7,160405,10.3,E*5F AE0SS-11>APRS,qAR,K0YG-7:$GPGGA,140956,4028.9706,N,10437.1763,W,1,05,0.91,15291.0,M,-21.5,M,,*43 AE0SS-11>APRS,qAo,K0ANI-7:$GPGGA,141026,4028.9932,N,10436.9153,W,1,04,0.91,15372.4,M,-21.5,M,,*40 AE0SS-11>APRS,qAo,K0AEM-1:$GPRMC,141049,A,4029.0166,N,10436.7067,W,29.037,79.9,160405,10.3,E*59 AE0SS-11>APRS,qAR,K0YG-7:$GPGGA,141056,4029.0288,N,10436.6391,W,1,05,0.91,15464.6,M,-21.5,M,,*45 AE0SS-11>APRS,qAo,K0ANI-7:$GPGGA,141126,4029.0621,N,10436.3779,W,1,05,0.91,15556.5,M,-21.5,M,,*40 AE0SS-11>APRS,qAR,K0YG-7:$GPRMC,141149,A,4029.1066,N,10436.1831,W,25.058,76.4,160405,10.3,E*52 AE0SS-11>APRS,qAo,K0AEM-1:$GPGGA,141156,4029.1155,N,10436.1179,W,1,06,0.91,15649.8,M,-21.5,M,,*45 AE0SS-11>APRS,qAo,K0AEM-1:$GPGGA,141226,4029.1338,N,10435.8241,W,1,05,0.91,15746.9,M,-21.5,M,,*46 AE0SS-11>APRS,qAo,K0AEM-1:$GPRMC,141249,A,4029.1864,N,10435.6055,W,31.235,61.9,160405,10.3,E*52 AE0SS-11>APRS,qAR,K0YG-7:$GPGGA,141256,4029.2194,N,10435.5266,W,1,04,0.91,15889.2,M,-21.5,M,,*48 AE0SS-11>APRS,qAo,K0AEM-1:$GPGGA,141326,4029.3618,N,10435.1942,W,1,04,0.91,16030.4,M,-21.5,M,,*4A AE0SS-11>APRS,qAo,K0AEM-1:$GPRMC,141349,A,4029.4049,N,10434.8928,W,38.437,84.5,160405,10.3,E*57 AE0SS-11>APRS,qAo,K0AEM-1:$GPGGA,141356,4029.4030,N,10434.7977,W,1,06,0.91,16154.9,M,-21.5,M,,*4B AE0SS-11>APRS,qAo,K0AEM-1:$GPGGA,141426,4029.4633,N,10434.3949,W,1,04,0.91,16270.9,M,-21.5,M,,*40 AE0SS-11>APRS,qAR,K0YG-7:$GPRMC,141449,A,4029.5017,N,10434.0827,W,35.760,78.3,160405,10.3,E*55 AE0SS-11>APRS,qAo,K0AEM-1:$GPGGA,141456,4029.5145,N,10433.9901,W,1,06,0.91,16355.2,M,-21.5,M,,*4E AE0SS-11>APRS,qAo,K0AEM-1:$GPGGA,141526,4029.5420,N,10433.5910,W,1,06,0.91,16449.8,M,-21.6,M,,*41 AE0SS-11>APRS,qAo,WA0VSL-6:$GPRMC,141549,A,4029.5647,N,10433.2942,W,37.028,86.4,160405,10.3,E*5F AE0SS-11>APRS,qAo,WA0VSL-6:$GPGGA,141556,4029.5741,N,10433.2107,W,1,05,0.91,16537.2,M,-21.6,M,,*4A AE0SS-11>APRS,qAo,K0AEM-1:$GPGGA,141626,4029.6327,N,10432.8426,W,1,04,0.91,16629.2,M,-21.6,M,,*49 AE0SS-11>APRS,qAo,K0AEM-1:$GPRMC,141649,A,4029.6675,N,10432.5207,W,37.434,78.1,160405,10.2,E*5E AE0SS-11>APRS,qAo,K0AEM-1:$GPGGA,141656,4029.6828,N,10432.4307,W,1,06,0.91,16726.3,M,-21.6,M,,*4F AE0SS-11>APRS,qAo,WA0VSL-6:$GPGGA,141726,4029.7200,N,10432.0029,W,1,04,0.91,16824.6,M,-21.6,M,,*49 AE0SS-11>APRS,qAo,K0AEM-1:$GPRMC,141749,A,4029.7507,N,10431.6835,W,40.625,83.5,160405,10.2,E*51 AE0SS-11>APRS,qAo,K0AEM-1:$GPGGA,141756,4029.7671,N,10431.5812,W,1,05,0.91,16917.9,M,-21.6,M,,*45 AE0SS-11>APRS,qAo,WA0VSL-6:$GPGGA,141826,4029.8370,N,10431.1708,W,1,04,0.92,17025.4,M,-21.6,M,,*40 AE0SS-11>APRS,qAo,K0AEM-1:$GPRMC,141849,A,4029.8766,N,10430.8481,W,40.780,83.6,160405,10.2,E*55 AE0SS-11>APRS,qAo,K0AEM-1:$GPGGA,141856,4029.8844,N,10430.7466,W,1,06,0.92,17115.5,M,-21.6,M,,*46 AE0SS-11>APRS,qAR,K0YG-7:$GPGGA,141926,4029.9488,N,10430.3446,W,1,05,0.92,17221.8,M,-21.6,M,,*41 AE0SS-11>APRS,qAR,K0YG-7:$GPRMC,141949,A,4029.9889,N,10430.0041,W,42.297,78.8,160405,10.2,E*50 AE0SS-11>APRS,qAR,K0YG-7:$GPGGA,141956,4030.0027,N,10429.8994,W,1,05,0.92,17316.0,M,-21.6,M,,*4A AE0SS-11>APRS,qAo,WA0VSL-6:$GPGGA,142026,4030.0421,N,10429.4572,W,1,04,0.92,17400.2,M,-21.6,M,,*4E AE0SS-11>APRS,qAo,K0AEM-1:$GPRMC,142049,A,4030.0661,N,10429.1074,W,45.001,93.2,160405,10.2,E*59 AE0SS-11>APRS,qAR,K0YG-7:$GPGGA,142056,4030.0658,N,10429.0035,W,1,05,0.92,17482.6,M,-21.6,M,,*48 AE0SS-11>APRS,qAo,K0AEM-1:$GPGGA,142126,4030.0864,N,10428.5700,W,1,04,0.92,17565.1,M,-21.6,M,,*44 AE0SS-11>APRS,qAR,K0YG-7:$GPRMC,142149,A,4030.1093,N,10428.2528,W,37.419,82.8,160405,10.2,E*5E AE0SS-11>APRS,qAR,K0YG-7:$GPGGA,142156,4030.1120,N,10428.1577,W,1,07,0.92,17649.6,M,-21.6,M,,*44 AE0SS-11>APRS,qAR,K0YG-7:$GPGGA,142226,4030.1426,N,10427.7634,W,1,05,0.92,17747.1,M,-21.8,M,,*4A AE0SS-11>APRS,qAR,K0YG-7:$GPRMC,142249,A,4030.1396,N,10427.4718,W,33.946,90.0,160405,10.2,E*5B AE0SS-11>APRS,qAo,K0AEM-1:$GPGGA,142256,4030.1447,N,10427.3826,W,1,04,0.92,17843.4,M,-21.8,M,,*4C AE0SS-11>APRS,qAo,WA0VSL-6:$GPGGA,142326,4030.1437,N,10427.0012,W,1,04,0.92,17950.6,M,-21.8,M,,*40 AE0SS-11>APRS,qAR,K0YG-7:$GPRMC,142349,A,4030.1263,N,10426.7130,W,37.234,90.9,160405,10.2,E*5C AE0SS-11>APRS,qAR,K0YG-7:$GPGGA,142356,4030.1230,N,10426.6362,W,1,04,0.92,18056.6,M,-21.8,M,,*45 AE0SS-11>APRS,qAo,K0AEM-1:$GPGGA,142426,4030.1297,N,10426.2770,W,1,04,0.92,18149.6,M,-21.8,M,,*44 AE0SS-11>APRS,qAo,WA0VSL-6:$GPRMC,142449,A,4030.1406,N,10425.9915,W,31.504,85.9,160405,10.1,E*59 AE0SS-11>APRS,qAR,K0YG-7:$GPGGA,142456,4030.1413,N,10425.9205,W,1,05,0.92,18242.3,M,-21.8,M,,*4A AE0SS-11>APRS,qAo,K0AEM-1:$GPGGA,142526,4030.1387,N,10425.5930,W,1,04,0.92,18332.1,M,-21.8,M,,*42 AE0SS-11>APRS,qAO,N0KKZ-5:$GPRMC,142549,A,4030.1290,N,10425.3868,W,24.018,104.8,160405,10.1,E*65 AE0SS-11>APRS,qAo,WA0VSL-6:$GPGGA,142556,4030.1232,N,10425.3189,W,1,05,0.92,18430.2,M,-21.8,M,,*41 AE0SS-11>APRS,qAR,K0YG-7:$GPGGA,142626,4030.1090,N,10425.0424,W,1,04,0.93,18518.3,M,-21.8,M,,*44 AE0SS-11>APRS,qAR,K0YG-7:$GPRMC,142649,A,4030.0847,N,10424.8187,W,29.388,94.2,160405,10.1,E*50 AE0SS-11>APRS,qAo,WA0VSL-6:$GPGGA,142656,4030.0788,N,10424.7520,W,1,05,0.93,18619.9,M,-21.8,M,,*46 AE0SS-11>APRS,qAo,WA0VSL-6:$GPGGA,142726,4030.0439,N,10424.5031,W,1,04,0.93,18714.5,M,-21.8,M,,*4F AE0SS-11>APRS,qAR,K0YG-7:$GPGGA,142756,4030.0070,N,10424.2667,W,1,05,0.93,18808.0,M,-21.8,M,,*45 AE0SS-11>APRS,qAR,K0YG-7:$GPRMC,142749,A,4030.0181,N,10424.3239,W,22.747,103.1,160405,10.1,E*6F AE0SS-11>APRS,qAR,K0YG-7:$GPGGA,142826,4029.9936,N,10424.0688,W,1,04,0.93,18903.5,M,-21.8,M,,*4A AE0SS-11>APRS,qAo,WA0VSL-6:$GPRMC,142849,A,4029.9963,N,10423.8958,W,20.034,85.4,160405,10.1,E*5E AE0SS-11>APRS,qAR,K0YG-7:$GPGGA,142856,4029.9933,N,10423.8469,W,1,04,0.93,18997.9,M,-21.8,M,,*4B AE0SS-11>APRS,qAR,K0YG-7:$GPGGA,142926,4029.9867,N,10423.6069,W,1,05,0.93,19108.0,M,-21.8,M,,*40 AE0SS-11>APRS,qAR,K0YG-7:$GPRMC,142949,A,4029.9539,N,10423.4635,W,20.114,110.4,160405,10.1,E*6A AE0SS-11>APRS,qAR,K0YG-7:$GPGGA,142956,4029.9399,N,10423.4150,W,1,04,0.93,19214.2,M,-21.8,M,,*49 AE0SS-11>APRS,qAR,K0YG-7:$GPGGA,143026,4029.9253,N,10423.2157,W,1,05,0.93,19331.7,M,-21.8,M,,*42 AE0SS-11>APRS,qAR,K0YG-7:$GPRMC,143049,A,4029.9470,N,10423.0381,W,26.402,81.6,160405,10.1,E*5F AE0SS-11>APRS,qAR,K0YG-7:$GPGGA,143056,4029.9485,N,10422.9762,W,1,04,0.93,19442.8,M,-21.8,M,,*4F AE0SS-11>APRS,qAR,K0YG-7:$GPGGA,143126,4029.9133,N,10422.7197,W,1,04,0.93,19572.8,M,-21.8,M,,*41 AE0SS-11>APRS,qAR,K0YG-7:$GPGGA,143156,4029.8405,N,10422.4749,W,1,03,0.93,19667.7,M,-21.8,M,,*4E AE0SS-11>APRS,qAo,WA0VSL-6:$GPRMC,143149,A,4029.8586,N,10422.5282,W,24.657,112.6,160405,10.1,E*6A AE0SS-11>APRS,qAo,WA0VSL-6:$GPGGA,143226,4029.7516,N,10422.3562,W,1,05,0.93,19778.0,M,-21.8,M,,*44 AE0SS-11>APRS,qAR,K0YG-7:$GPGGA,143256,4029.6899,N,10422.2871,W,1,03,0.93,19873.5,M,-21.8,M,,*41 AE0SS-11>APRS,qAo,WA0VSL-6:$GPRMC,143249,A,4029.7056,N,10422.2991,W,10.732,144.2,160405,10.1,E*62 AE0SS-11>APRS,qAR,K0YG-7:$GPGGA,143326,4029.6606,N,10422.2138,W,1,04,1.06,19974.2,M,-21.8,M,,*40 AE0SS-11>APRS,qAo,K0AEM-1:$GPRMC,143349,A,4029.6515,N,10422.1297,W,7.194,124.1,160405,10.1,E*57 AE0SS-11>APRS,qAo,K0AEM-1:$GPGGA,143356,4029.6467,N,10422.1040,W,1,04,1.06,20086.8,M,-21.8,M,,*4B AE0SS-11>APRS,qAo,WA0VSL-6:$GPGGA,143426,4029.6400,N,10422.0356,W,1,02,1.06,20190.5,M,-21.8,M,,*42 AE0SS-11>APRS,qAR,K0YG-7:$GPRMC,143449,A,4029.6270,N,10422.0794,W,8.524,277.2,160405,10.1,E*55 AE0SS-11>APRS,qAo,K0AEM-1:$GPGGA,143456,4029.6263,N,10422.0905,W,1,05,1.06,20344.3,M,-21.8,M,,*40 AE0SS-11>APRS,qAR,K0YG-7:$GPGGA,143526,4029.5623,N,10422.1852,W,1,04,1.06,20462.6,M,-21.8,M,,*40 AE0SS-11>APRS,qAR,K0YG-7:$GPRMC,143549,A,4029.5033,N,10422.2108,W,9.348,198.1,160405,10.1,E*5F AE0SS-11>APRS,qAR,K0YG-7:$GPGGA,143556,4029.4981,N,10422.2159,W,1,04,1.06,20595.9,M,-21.8,M,,*46 AE0SS-11>APRS,qAR,K0YG-7:$GPGGA,143626,4029.5168,N,10422.3001,W,1,05,1.06,20727.4,M,-21.8,M,,*46 AE0SS-11>APRS,qAR,K0YG-7:$GPRMC,143649,A,4029.5423,N,10422.3778,W,10.406,300.7,160405,10.1,E*69 AE0SS-11>APRS,qAR,K0YG-7:$GPGGA,143656,4029.5513,N,10422.4014,W,1,03,1.06,20850.6,M,-21.8,M,,*41 AE0SS-11>APRS,qAo,K0AEM-1:$GPGGA,143726,4029.5741,N,10422.4651,W,1,03,1.06,20954.6,M,-21.8,M,,*40 AE0SS-11>APRS,qAo,K0AEM-1:$GPRMC,143749,A,4029.6085,N,10422.4569,W,7.366,39.6,160405,10.1,E*69 AE0SS-11>APRS,qAR,K0YG-7:$GPGGA,143756,4029.6251,N,10422.4421,W,1,04,1.07,21060.4,M,-21.8,M,,*4E AE0SS-11>APRS,qAo,WA0VSL-6:$GPGGA,143826,4029.6452,N,10422.3472,W,1,03,1.07,21159.9,M,-21.8,M,,*43 AE0SS-11>APRS,qAo,K0AEM-1:$GPRMC,143849,A,4029.6601,N,10422.2340,W,16.419,87.2,160405,10.1,E*59 AE0SS-11>APRS,qAR,K0YG-7:$GPGGA,143856,4029.6689,N,10422.2029,W,1,04,1.07,21248.0,M,-21.8,M,,*46 AE0SS-11>APRS,qAR,K0YG-7:$GPGGA,143926,4029.7124,N,10422.0198,W,1,04,1.07,21345.2,M,-21.8,M,,*46 AE0SS-11>APRS,qAR,K0YG-7:$GPRMC,143949,A,4029.7549,N,10421.8618,W,19.952,68.9,160405,10.1,E*50 AE0SS-11>APRS,qAR,K0YG-7:$GPGGA,143956,4029.7665,N,10421.8222,W,1,05,1.07,21442.7,M,-21.8,M,,*4E AE0SS-11>APRS,qAR,K0YG-7:$GPGGA,144026,4029.7483,N,10421.6346,W,1,03,1.07,21534.2,M,-21.9,M,,*42 AE0SS-11>APRS,qAR,K0YG-7:$GPGGA,144056,4029.7024,N,10421.4989,W,1,05,1.07,21640.2,M,-21.9,M,,*41 AE0SS-11>APRS,qAo,WA0VSL-6:$GPRMC,144049,A,4029.7230,N,10421.5259,W,14.355,108.6,160405,10.1,E*63 AE0SS-11>APRS,qAo,WA0VSL-6:$GPGGA,144126,4029.6225,N,10421.4481,W,1,05,1.07,21739.8,M,-21.9,M,,*45 AE0SS-11>APRS,qAR,K0YG-7:$GPGGA,144156,4029.5472,N,10421.3937,W,1,04,1.07,21847.3,M,-21.9,M,,*4E AE0SS-11>APRS,qAR,K0YG-7:$GPRMC,144149,A,4029.5637,N,10421.4037,W,13.667,144.8,160405,10.1,E*6D AE0SS-11>APRS,qAR,K0YG-7:$GPGGA,144226,4029.4603,N,10421.3429,W,1,05,1.07,21963.5,M,-21.9,M,,*4D AE0SS-11>APRS,qAR,K0YG-7:$GPRMC,144249,A,4029.3736,N,10421.2863,W,13.539,147.2,160405,10.1,E*66 AE0SS-11>APRS,qAR,K0YG-7:$GPGGA,144256,4029.3541,N,10421.2756,W,1,04,1.08,22082.5,M,-21.9,M,,*49 AE0SS-11>APRS,qAR,K0YG-7:$GPGGA,144326,4029.3065,N,10421.2542,W,1,03,1.08,22215.8,M,-21.9,M,,*4D AE0SS-11>APRS,qAR,K0YG-7:$GPRMC,144349,A,4029.2697,N,10421.2235,W,10.684,168.0,160405,10.1,E*6C AE0SS-11>APRS,qAR,K0YG-7:$GPGGA,144356,4029.2516,N,10421.2116,W,1,04,1.08,22339.1,M,-21.9,M,,*4E AE0SS-11>APRS,qAR,K0YG-7:$GPGGA,144426,4029.2033,N,10421.1064,W,1,03,1.08,22505.0,M,-21.9,M,,*44 AE0SS-11>APRS,qAo,K0AEM-1:$GPRMC,144449,A,4029.2150,N,10421.0311,W,10.505,82.8,160405,10.1,E*55 AE0SS-11>APRS,qAR,K0YG-7:$GPGGA,144526,4029.1697,N,10420.9521,W,1,05,1.08,22760.2,M,-21.9,M,,*46 AE0SS-11>APRS,qAR,K0YG-7:$GPRMC,144549,A,4029.1485,N,10420.8720,W,12.883,92.4,160405,10.1,E*59 AE0SS-11>APRS,qAR,K0YG-7:$GPGGA,144556,4029.1418,N,10420.8448,W,1,04,1.08,22856.5,M,-21.9,M,,*47 AE0SS-11>APRS,qAo,K0AEM-1:$GPGGA,144626,4029.0939,N,10420.7339,W,1,03,1.08,22941.4,M,-21.9,M,,*43 AE0SS-11>APRS,qAR,K0YG-7:$GPRMC,144649,A,4029.0540,N,10420.7076,W,9.484,181.7,160405,10.1,E*59 AE0SS-11>APRS,qAR,K0YG-7:$GPGGA,144656,4029.0395,N,10420.7123,W,1,03,1.08,23040.7,M,-21.9,M,,*4B AE0SS-11>APRS,qAR,K0YG-7:$GPGGA,144726,4028.9961,N,10420.7483,W,1,05,1.08,23145.1,M,-21.9,M,,*4F AE0SS-11>APRS,qAR,K0YG-7:$GPRMC,144749,A,4028.9582,N,10420.7550,W,6.703,199.1,160405,10.1,E*53 AE0SS-11>APRS,qAR,K0YG-7:$GPGGA,144756,4028.9490,N,10420.7631,W,1,05,1.08,23242.5,M,-21.9,M,,*40 AE0SS-11>APRS,qAR,K0YG-7:$GPGGA,144826,4028.8999,N,10420.7315,W,1,04,1.09,23354.7,M,-21.9,M,,*4A AE0SS-11>APRS,qAR,K0YG-7:$GPRMC,144849,A,4028.8956,N,10420.6796,W,5.189,1.6,160405,10.1,E*51 AE0SS-11>APRS,qAR,K0YG-7:$GPGGA,144856,4028.9008,N,10420.6681,W,1,04,1.09,23464.7,M,-21.9,M,,*40 AE0SS-11>APRS,qAR,K0YG-7:$GPGGA,144926,4028.9276,N,10420.5927,W,1,04,1.09,23575.6,M,-21.9,M,,*4D AE0SS-11>APRS,qAR,K0YG-7:$GPRMC,144949,A,4028.9508,N,10420.4953,W,14.401,73.6,160405,10.1,E*53 AE0SS-11>APRS,qAR,K0YG-7:$GPGGA,144956,4028.9509,N,10420.4620,W,1,03,1.09,23677.6,M,-21.9,M,,*4A AE0SS-11>APRS,qAR,K0YG-7:$GPGGA,145026,4028.9450,N,10420.3421,W,1,04,1.09,23794.3,M,-21.9,M,,*42 AE0SS-11>APRS,qAR,K0YG-7:$GPGGA,145056,4028.9069,N,10420.2433,W,1,04,1.09,23904.7,M,-21.9,M,,*4A AE0SS-11>APRS,qAR,K0YG-7:$GPRMC,145049,A,4028.9180,N,10420.2613,W,14.211,142.0,160405,10.1,E*60 AE0SS-11>APRS,qAR,K0YG-7:$GPGGA,145126,4028.8469,N,10420.1827,W,1,03,1.09,24015.2,M,-21.9,M,,*4F AE0SS-11>APRS,qAo,K0AEM-1:$GPRMC,145149,A,4028.8034,N,10420.1371,W,4.448,100.0,160405,10.1,E*51 AE0SS-11>APRS,qAR,K0YG-7:$GPGGA,145156,4028.7982,N,10420.1302,W,1,04,1.09,24123.9,M,-21.9,M,,*4B AE0SS-11>APRS,qAR,K0YG-7:$GPGGA,145226,4028.7695,N,10420.0760,W,1,05,1.09,24224.6,M,-21.9,M,,*4D AE0SS-11>APRS,qAR,K0YG-7:$GPRMC,145249,A,4028.7661,N,10420.0160,W,12.896,94.1,160405,10.1,E*5D AE0SS-11>APRS,qAo,WA0VSL-6:$GPGGA,145256,4028.7664,N,10419.9915,W,1,05,1.09,24332.2,M,-21.9,M,,*49 AE0SS-11>APRS,qAo,K0AEM-1:$GPGGA,145326,4028.7572,N,10419.8932,W,1,04,1.10,24427.4,M,-21.9,M,,*43 AE0SS-11>APRS,qAR,K0YG-7:$GPRMC,145349,A,4028.7480,N,10419.8377,W,8.625,135.8,160405,10.1,E*59 AE0SS-11>APRS,qAo,K0AEM-1:$GPGGA,145356,4028.7355,N,10419.8237,W,1,04,1.10,24532.5,M,-21.9,M,,*4D AE0SS-11>APRS,qAR,K0YG-7:$GPGGA,145426,4028.6846,N,10419.7951,W,1,05,1.10,24645.1,M,-21.9,M,,*47 AE0SS-11>APRS,qAo,WA0VSL-6:$GPRMC,145449,A,4028.6951,N,10419.7458,W,6.906,58.3,160405,10.1,E*6A AE0SS-11>APRS,qAR,K0YG-7:$GPGGA,145456,4028.7066,N,10419.7293,W,1,06,1.10,24762.3,M,-21.9,M,,*4B AE0SS-11>APRS,qAR,K0YG-7:$GPGGA,145526,4028.7117,N,10419.6625,W,1,04,1.10,24871.3,M,-21.9,M,,*4D AE0SS-11>APRS,qAR,K0YG-7:$GPGGA,145556,4028.6621,N,10419.5969,W,1,04,1.10,24988.6,M,-21.9,M,,*4F AE0SS-11>APRS,qAR,K0YG-7:$GPRMC,145549,A,4028.6701,N,10419.6101,W,10.478,140.3,160405,10.1,E*63 AE0SS-11>APRS,qAo,K0AEM-1:$GPGGA,145626,4028.6643,N,10419.4987,W,1,04,1.10,25099.3,M,-21.9,M,,*43 AE0SS-11>APRS,qAR,K0YG-7:$GPRMC,145649,A,4028.6633,N,10419.3979,W,15.042,83.1,160405,10.1,E*56 AE0SS-11>APRS,qAR,K0YG-7:$GPGGA,145656,4028.6634,N,10419.3560,W,1,03,1.10,25193.1,M,-21.9,M,,*48 AE0SS-11>APRS,qAo,K0AEM-1:$GPGGA,145726,4028.6341,N,10419.2064,W,1,03,1.10,25288.2,M,-21.9,M,,*43 AE0SS-11>APRS,qAo,WA0VSL-6:$GPRMC,145749,A,4028.5741,N,10419.1243,W,12.550,147.7,160405,10.1,E*6E AE0SS-11>APRS,qAR,K0YG-7:$GPGGA,145756,4028.5537,N,10419.1036,W,1,05,1.10,25391.1,M,-21.9,M,,*48 AE0SS-11>APRS,qAo,K0AEM-1:$GPGGA,145826,4028.4808,N,10418.9706,W,1,05,1.11,25488.2,M,-21.9,M,,*40 AE0SS-11>APRS,qAR,K0YG-7:$GPGGA,145856,4028.4243,N,10418.8523,W,1,05,0.97,25598.4,M,-21.9,M,,*4F AE0SS-11>APRS,qAR,K0YG-7:$GPRMC,145849,A,4028.4316,N,10418.8779,W,13.560,110.5,160405,10.1,E*60 AE0SS-11>APRS,qAR,K0YG-7:$GPGGA,145926,4028.3638,N,10418.7352,W,1,05,0.97,25711.2,M,-21.9,M,,*4C AE0SS-11>APRS,qAR,K0YG-7:$GPGGA,145956,4028.2895,N,10418.6473,W,1,05,0.97,25831.4,M,-21.9,M,,*4D AE0SS-11>APRS,qAR,K0YG-7:$GPRMC,145949,A,4028.3085,N,10418.6669,W,12.137,147.1,160405,10.1,E*60 AE0SS-11>APRS,qAo,WA0VSL-6:$GPGGA,150026,4028.1858,N,10418.5427,W,1,05,0.97,25944.3,M,-21.9,M,,*43 AE0SS-11>APRS,qAo,K0AEM-1:$GPRMC,150049,A,4028.1398,N,10418.4782,W,8.048,124.7,160405,10.1,E*57 AE0SS-11>APRS,qAR,K0YG-7:$GPGGA,150056,4028.1272,N,10418.4551,W,1,04,0.97,26046.6,M,-21.9,M,,*4B AE0SS-11>APRS,qAR,K0YG-7:$GPGGA,150126,4028.0996,N,10418.3068,W,1,04,0.97,26139.7,M,-21.9,M,,*4D AE0SS-11>APRS,qAR,K0YG-7:$GPGGA,150156,4028.0563,N,10418.1566,W,1,05,0.97,26237.4,M,-21.9,M,,*4A AE0SS-11>APRS,qAR,K0YG-7:$GPRMC,150149,A,4028.0715,N,10418.1889,W,18.691,119.5,160405,10.1,E*68 AE0SS-11>APRS,qAR,K0YG-7:$GPGGA,150226,4027.9902,N,10418.0350,W,1,03,0.97,26328.7,M,-21.9,M,,*4B AE0SS-11>APRS,qAR,K0YG-7:$GPRMC,150249,A,4027.9426,N,10417.9862,W,6.218,128.6,160405,10.1,E*57 AE0SS-11>APRS,qAR,K0YG-7:$GPGGA,150256,4027.9400,N,10417.9670,W,1,07,0.97,26427.9,M,-21.9,M,,*40 AE0SS-11>APRS,qAo,WA0VSL-6:$GPGGA,150326,4027.9082,N,10417.8809,W,1,06,0.97,26537.5,M,-21.9,M,,*44 AE0SS-11>APRS,qAR,K0YG-7:$GPRMC,150349,A,4027.8749,N,10417.7829,W,9.639,122.8,160405,10.1,E*50 AE0SS-11>APRS,qAR,K0YG-7:$GPGGA,150356,4027.8711,N,10417.7653,W,1,06,0.96,26651.8,M,-21.9,M,,*4E AE0SS-11>APRS,qAR,K0YG-7:$GPGGA,150426,4027.8740,N,10417.6595,W,1,03,0.96,26765.4,M,-21.9,M,,*4D AE0SS-11>APRS,qAR,K0YG-7:$GPRMC,150449,A,4027.8592,N,10417.5386,W,25.003,102.9,160405,10.1,E*6D AE0SS-11>APRS,qAR,K0YG-7:$GPGGA,150456,4027.8340,N,10417.4477,W,1,03,0.96,26821.9,M,-21.9,M,,*43 AE0SS-11>APRS,qAR,K0YG-7:$GPGGA,150526,4027.6499,N,10417.1861,W,1,02,0.96,26593.5,M,-21.9,M,,*4F AE0SS-11>APRS,qAo,K0AEM-1:$GPGGA,150626,4027.5113,N,10416.9303,W,1,01,0.96,26105.9,M,-21.9,M,,*4A AE0SS-11>APRS,qAR,K0YG-7:$GPRMC,150649,A,4027.5826,N,10416.7464,W,11.112,84.4,160405,10.1,E*5C AE0SS-11>APRS,qAR,K0YG-7:$GPGGA,150656,4027.5846,N,10416.7333,W,1,01,0.96,25906.4,M,-21.9,M,,*4C AE0SS-11>APRS,qAo,K0AEM-1:$GPRMC,150749,V,4027.7527,N,10416.7442,W,11.005,332.2,160405,10.1,E*7F AE0SS-11>APRS,qAR,K0YG-7:$GPRMC,150849,V,4027.9774,N,10417.0645,W,14.320,315.2,160405,10.1,E*7D AE0SS-11>APRS,qAR,K0YG-7:$GPRMC,150949,V,4027.9737,N,10416.6356,W,18.226,67.7,160405,10.1,E*43 AE0SS-11>APRS,qAo,K0AEM-1:$GPRMC,151049,V,4027.8782,N,10416.1595,W,34.736,53.2,160405,10.1,E*42 AE0SS-11>APRS,qAR,K0YG-7:$GPGGA,151056,4027.8242,N,10416.0797,W,1,02,1.29,25816.3,M,-21.9,M,,*44 AE0SS-11>APRS,qAO,N0KKZ-5:$GPRMC,151149,A,4027.6851,N,10415.3583,W,19.129,36.6,160405,10.1,E*5D AE0SS-11>APRS,qAR,K0YG-7:$GPGGA,151156,4027.7077,N,10415.3066,W,1,03,1.29,25330.0,M,-22.1,M,,*41 AE0SS-11>APRS,qAO,N0KKZ-5:$GPGGA,151226,4027.8719,N,10414.9208,W,1,01,1.29,25117.8,M,-22.1,M,,*49 AE0SS-11>APRS,qAR,K0YG-7:$GPRMC,151249,A,4027.9215,N,10414.4873,W,45.466,83.6,160405,10.1,E*56 AE0SS-11>APRS,qAR,K0YG-7:$GPGGA,151256,4027.9296,N,10414.3695,W,1,02,1.29,25012.6,M,-22.1,M,,*4E AE0SS-11>APRS,qAo,WA0VSL-6:$GPGGA,151326,4028.1070,N,10414.0144,W,1,01,1.29,24891.2,M,-22.1,M,,*48 AE0SS-11>APRS,qAR,K0YG-7:$GPRMC,151349,A,4028.3290,N,10413.6267,W,43.234,45.9,160405,10.0,E*56 AE0SS-11>APRS,qAo,K0AEM-1:$GPGGA,151356,4028.3554,N,10413.5661,W,1,01,1.29,24743.8,M,-22.1,M,,*46 AE0SS-11>APRS,qAR,K0YG-7:$GPGGA,151426,4028.3904,N,10413.2409,W,1,04,1.29,24589.6,M,-22.1,M,,*4B AE0SS-11>APRS,qAR,K0YG-7:$GPRMC,151449,A,4028.3219,N,10413.0208,W,24.086,108.1,160405,10.0,E*65 AE0SS-11>APRS,qAo,K0AEM-1:$GPGGA,151456,4028.3117,N,10412.9412,W,1,01,1.29,24430.2,M,-22.1,M,,*44 AE0SS-11>APRS,qAR,K0YG-7:$GPGGA,151526,4028.2822,N,10412.6209,W,1,04,1.29,24305.6,M,-22.1,M,,*4F AE0SS-11>APRS,qAR,K0YG-7:$GPRMC,151549,A,4028.3241,N,10412.3446,W,36.913,79.6,160405,10.0,E*51 AE0SS-11>APRS,qAR,K0YG-7:$GPGGA,151556,4028.3370,N,10412.2805,W,1,03,1.29,24232.2,M,-22.1,M,,*41 AE0SS-11>APRS,qAR,K0YG-7:$GPGGA,151626,4028.4185,N,10411.9388,W,1,03,1.29,24174.8,M,-22.1,M,,*47 AE0SS-11>APRS,qAR,K0YG-7:$GPRMC,151649,A,4028.4798,N,10411.6811,W,35.381,61.9,160405,10.0,E*58 AE0SS-11>APRS,qAR,K0YG-7:$GPGGA,151656,4028.5018,N,10411.6265,W,1,02,1.29,24096.0,M,-22.1,M,,*4D AE0SS-11>APRS,qAR,K0YG-7:$GPGGA,151726,4028.5472,N,10411.3083,W,1,02,1.30,24015.4,M,-22.1,M,,*4B AE0SS-11>APRS,qAR,K0YG-7:$GPRMC,151749,A,4028.5294,N,10410.9052,W,41.169,72.8,160405,10.0,E*54 AE0SS-11>APRS,qAo,WA0VSL-6:$GPGGA,151756,4028.5284,N,10410.7896,W,1,05,1.30,23796.8,M,-22.1,M,,*4A AE0SS-11>APRS,qAR,K0YG-7:$GPGGA,151826,4028.6271,N,10410.3379,W,1,03,1.30,23562.2,M,-22.1,M,,*40 AE0SS-11>APRS,qAR,K0YG-7:$GPRMC,151848,A,4028.6502,N,10410.0502,W,29.827,71.1,160405,10.0,E*5F AE0SS-11>APRS,qAR,K0YG-7:$GPGGA,151855,4028.6730,N,10409.9829,W,1,03,1.30,23250.3,M,-22.1,M,,*4F AE0SS-11>APRS,qAO,N0KKZ-5:$GPGGA,151925,4028.7342,N,10409.6854,W,1,03,1.30,23048.9,M,-22.2,M,,*4E AE0SS-11>APRS,qAR,K0YG-7:$GPRMC,151948,A,4028.7743,N,10409.4726,W,21.168,74.3,160405,10.0,E*5D AE0SS-11>APRS,qAO,N0KKZ-5:$GPGGA,151955,4028.7913,N,10409.4105,W,1,04,1.30,22863.5,M,-22.2,M,,*43 AE0SS-11>APRS,qAR,K0YG-7:$GPGGA,152025,4028.8239,N,10409.0950,W,1,04,1.30,22625.6,M,-22.2,M,,*41 AE0SS-11>APRS,qAR,K0YG-7:$GPRMC,152048,A,4028.8430,N,10408.9230,W,18.782,105.8,160405,10.0,E*65 AE0SS-11>APRS,qAR,K0YG-7:$GPGGA,152055,4028.8358,N,10408.8574,W,1,05,1.31,22529.7,M,-22.2,M,,*4D AE0SS-11>APRS,qAR,K0YG-7:$GPGGA,152125,4028.8742,N,10408.5927,W,1,04,1.31,22360.6,M,-22.2,M,,*48 AE0SS-11>APRS,qAR,K0YG-7:$GPRMC,152148,A,4028.9565,N,10408.4091,W,24.264,47.5,160405,10.0,E*58 AE0SS-11>APRS,qAo,K0AEM-1:$GPGGA,152155,4028.9670,N,10408.3428,W,1,05,1.31,22177.0,M,-22.2,M,,*49 AE0SS-11>APRS,qAR,K0YG-7:$GPGGA,152225,4029.0045,N,10408.0572,W,1,04,1.31,21944.6,M,-22.2,M,,*44 AE0SS-11>APRS,qAR,K0YG-7:$GPRMC,152248,A,4029.0128,N,10407.8400,W,35.019,80.0,160405,10.0,E*57 AE0SS-11>APRS,qAR,K0YG-7:$GPGGA,152255,4029.0202,N,10407.7739,W,1,03,1.31,21830.6,M,-22.2,M,,*42 AE0SS-11>APRS,qAR,K0YG-7:$GPGGA,152325,4029.0536,N,10407.4512,W,1,04,1.32,21724.7,M,-22.2,M,,*43 AE0SS-11>APRS,qAR,K0YG-7:$GPRMC,152348,A,4029.0410,N,10407.3006,W,17.798,95.1,160405,10.0,E*5A AE0SS-11>APRS,qAR,K0YG-7:$GPGGA,152355,4029.0201,N,10407.2392,W,1,04,1.32,21554.6,M,-22.2,M,,*4B AE0SS-11>APRS,qAR,K0YG-7:$GPGGA,152425,4028.9940,N,10406.9940,W,1,01,1.32,21370.1,M,-22.2,M,,*40 AE0SS-11>APRS,qAR,K0YG-7:$GPGGA,152525,4029.0382,N,10406.4800,W,1,04,1.32,20908.2,M,-22.2,M,,*47 AE0SS-11>APRS,qAR,K0YG-7:$GPRMC,152548,A,4029.0475,N,10406.3837,W,11.985,35.3,160405,9.9,E*69 AE0SS-11>APRS,qAR,K0YG-7:$GPGGA,152625,4029.0501,N,10406.2421,W,1,03,1.33,20517.1,M,-22.2,M,,*47 AE0SS-11>APRS,qAo,K0AEM-1:$GPRMC,152648,A,4029.0725,N,10406.0906,W,14.174,39.6,160405,9.9,E*66 AE0SS-11>APRS,qAR,K0YG-7:$GPGGA,152655,4029.0712,N,10406.0421,W,1,04,1.33,20279.9,M,-22.2,M,,*42 AE0SS-11>APRS,qAR,K0YG-7:$GPGGA,152725,4029.1074,N,10405.7804,W,1,05,1.34,19999.9,M,-22.2,M,,*44 AE0SS-11>APRS,qAo,K0AEM-1:$GPRMC,152748,A,4029.0884,N,10405.5741,W,27.627,69.7,160405,9.9,E*6D AE0SS-11>APRS,qAo,K0AEM-1:$GPGGA,152755,4029.0860,N,10405.5393,W,1,05,1.34,19693.0,M,-22.2,M,,*44 AE0SS-11>APRS,qAR,K0YG-7:$GPGGA,152825,4029.1165,N,10405.2786,W,1,05,1.34,19442.7,M,-22.2,M,,*4F AE0SS-11>APRS,qAR,K0YG-7:$GPGGA,152855,4029.1357,N,10405.0529,W,1,03,1.35,19188.9,M,-22.2,M,,*44 AE0SS-11>APRS,qAR,K0YG-7:$GPRMC,152948,A,4029.1255,N,10404.5242,W,12.647,160.8,160405,9.9,E*54 AE0SS-11>APRS,qAR,K0YG-7:$GPGGA,153025,4029.1106,N,10404.2349,W,1,05,1.35,18627.8,M,-22.2,M,,*4B AE0SS-11>APRS,qAR,K0YG-7:$GPRMC,153048,A,4029.1050,N,10404.1175,W,24.212,85.6,160405,9.9,E*6D AE0SS-11>APRS,qAR,K0YG-7:$GPGGA,153055,4029.1195,N,10404.0755,W,1,04,1.36,18413.2,M,-22.2,M,,*40 AE0SS-11>APRS,qAR,K0YG-7:$GPGGA,153125,4029.1378,N,10403.8858,W,1,04,1.36,18189.6,M,-22.2,M,,*48 AE0SS-11>APRS,qAR,K0YG-7:$GPGGA,153155,4029.1689,N,10403.6591,W,1,05,1.36,17986.1,M,-22.4,M,,*4A AE0SS-11>APRS,qAR,K0YG-7:$GPGGA,153225,4029.2001,N,10403.4625,W,1,04,1.37,17774.2,M,-22.4,M,,*45 AE0SS-11>APRS,qAR,K0YG-7:$GPRMC,153248,A,4029.2286,N,10403.3016,W,11.888,59.5,160405,9.9,E*69 AE0SS-11>APRS,qAR,K0YG-7:$GPGGA,153255,4029.2248,N,10403.2842,W,1,03,1.37,17560.3,M,-22.4,M,,*45 AE0SS-11>APRS,qAR,K0YG-7:$GPGGA,153725,4030.1190,N,10402.1240,W,1,04,1.40,16126.0,M,-22.4,M,,*43